Sautee Nacoochee, Georgia
Current Conditions -  °F | °C
As of 1:35 AM on Friday 19 Dec 2014 (Local Time) from KTOC Reporting Station
Clear Clear  
Wind Chill: 42°   Ceiling: Unl
Heat Index: 46°   Visibility: 10mi
Dew Point: 33°   Wind: 6mph
Humidity: 61%   Direction: 300°WNW
Pressure: 30.08"   Gusts: NA
Location:  34.72°N, 83.73°W
Report Text: KTOC 190635Z AUTO 30005KT 10SM CLR 08/01 A3008 RMK AO2 T00750005
Loading
Personal Weather Stations






























Interactive Weather Map New forecast layout! Learn more

10-Day Weather Forecast

Advertisements
Track Severe Weather on mobile